Time;durP1;ratioP1;P1;durP2;ratioP2;P2;SDS_P1;SDS_P2;PMS_P1;PMS_P2;Temp;Humidity;BMP_temperature;BMP_pressure;BME280_temperature;BME280_humidity;BME280_pressure;Samples;Min_cycle;Max_cycle;Signal;HPM_P1;HPM_P2
2022/06/15 00:01:30;;;;;;;5.45;2.90;;;;;;;18.73;45.19;96805.06;6242041;23;20314;-80
2022/06/15 00:04:00;;;;;;;4.68;2.58;;;;;;;18.73;45.12;96799.78;6242255;22;20000;-80
2022/06/15 00:06:31;;;;;;;4.30;3.03;;;;;;;18.72;45.42;96800.84;6242249;22;20020;-79
2022/06/15 00:09:00;;;;;;;3.75;2.83;;;;;;;18.72;45.44;96803.47;6242610;23;20031;-80
2022/06/15 00:11:30;;;;;;;5.55;2.70;;;;;;;18.70;45.58;96802.91;6242354;23;20028;-80
2022/06/15 00:14:00;;;;;;;8.77;3.22;;;;;;;18.69;45.53;96804.75;6241618;23;20005;-80
2022/06/15 00:16:28;;;;;;;5.68;3.42;;;;;;;18.64;45.46;96788.75;6241875;23;20004;-80
2022/06/15 00:18:56;;;;;;;6.18;2.90;;;;;;;18.62;45.78;96797.94;6242318;22;20005;-79
2022/06/15 00:21:24;;;;;;;4.72;2.55;;;;;;;18.62;46.01;96795.31;6241914;23;20012;-79
2022/06/15 00:23:53;;;;;;;7.20;4.15;;;;;;;18.61;45.79;96799.00;6242299;22;20024;-79
2022/06/15 00:26:21;;;;;;;3.75;2.90;;;;;;;18.59;45.59;96795.78;6243778;22;20082;-80
2022/06/15 00:28:50;;;;;;;4.57;2.70;;;;;;;18.58;45.61;96804.72;6243688;22;20036;-79
2022/06/15 00:31:19;;;;;;;5.20;3.15;;;;;;;18.57;45.93;96801.28;6242887;22;20008;-79
2022/06/15 00:33:47;;;;;;;5.60;2.83;;;;;;;18.56;45.97;96806.78;6242881;22;20012;-80
2022/06/15 00:36:17;;;;;;;4.00;2.83;;;;;;;18.57;47.49;96811.03;6243469;22;20009;-79
2022/06/15 00:38:49;;;;;;;4.65;2.95;;;;;;;18.57;46.19;96808.41;6243191;22;20012;-80
2022/06/15 00:41:20;;;;;;;5.88;2.83;;;;;;;18.57;47.59;96803.13;6241718;23;20027;-80
2022/06/15 00:43:50;;;;;;;4.33;2.90;;;;;;;18.55;46.38;96800.69;6242403;23;20004;-80
2022/06/15 00:46:23;;;;;;;6.72;2.72;;;;;;;18.53;46.53;96811.47;6241808;23;20016;-80
2022/06/15 00:48:55;;;;;;;6.70;2.70;;;;;;;18.51;46.65;96797.69;6242005;22;20004;-80
2022/06/15 00:51:24;;;;;;;3.60;3.00;;;;;;;18.49;46.37;96801.59;6241851;23;20025;-80
2022/06/15 00:53:54;;;;;;;4.72;3.10;;;;;;;18.47;46.72;96804.44;6241145;23;20016;-80
2022/06/15 00:56:23;;;;;;;5.95;3.20;;;;;;;18.47;47.06;96799.16;6241406;22;20071;-80
2022/06/15 00:58:54;;;;;;;4.35;2.58;;;;;;;18.46;46.95;96808.13;6241498;23;20017;-80
2022/06/15 01:01:22;;;;;;;5.78;3.30;;;;;;;18.45;46.76;96795.94;6241736;23;20029;-79
2022/06/15 01:03:52;;;;;;;5.35;3.13;;;;;;;18.44;46.98;96788.28;6241427;23;20004;-79
2022/06/15 01:06:30;;;;;;;3.88;2.80;;;;;;;18.42;46.94;96795.63;6241999;22;20028;-80
2022/06/15 01:09:00;;;;;;;7.20;3.42;;;;;;;18.39;46.92;96794.25;6241727;22;20009;-80
2022/06/15 01:11:46;;;;;;;4.20;2.83;;;;;;;18.33;47.15;96790.66;6241145;23;20008;-80
2022/06/15 01:14:37;;;;;;;6.85;3.40;;;;;;;18.30;47.17;96787.66;6241761;23;20027;-80
2022/06/15 01:17:13;;;;;;;7.38;3.13;;;;;;;18.26;47.38;96792.59;6241254;23;20020;-79
2022/06/15 01:20:06;;;;;;;7.13;3.35;;;;;;;18.22;47.26;96788.78;6241323;23;20005;-78
2022/06/15 01:22:56;;;;;;;6.30;3.78;;;;;;;18.19;47.45;96796.34;6241757;23;20020;-80
2022/06/15 01:25:38;;;;;;;3.20;2.90;;;;;;;18.14;47.56;96793.59;6242170;22;20047;-79
2022/06/15 01:28:27;;;;;;;4.22;3.15;;;;;;;18.10;47.72;96788.78;6241826;23;20021;-79
2022/06/15 01:31:03;;;;;;;4.43;3.10;;;;;;;18.07;47.76;96783.91;6241914;23;20012;-79
2022/06/15 01:33:40;;;;;;;6.68;3.28;;;;;;;18.07;48.25;96783.91;6241930;22;20024;-80
2022/06/15 01:36:19;;;;;;;4.93;2.75;;;;;;;18.05;47.95;96780.69;6241949;22;20072;-80
2022/06/15 01:38:57;;;;;;;3.92;2.60;;;;;;;18.07;48.72;96773.34;6241672;23;20023;-81
2022/06/15 01:41:31;;;;;;;6.28;3.10;;;;;;;18.10;48.15;96777.38;6241961;23;20032;-79
2022/06/15 01:44:08;;;;;;;3.72;2.90;;;;;;;18.10;48.14;96772.94;6241245;22;20000;-80
2022/06/15 01:46:40;;;;;;;11.32;3.58;;;;;;;18.12;48.21;96770.84;6241579;22;20001;-79
2022/06/15 01:49:11;;;;;;;5.63;3.17;;;;;;;18.13;48.15;96776.94;6242315;22;20024;-79
2022/06/15 01:51:43;;;;;;;5.03;3.15;;;;;;;18.11;48.27;96774.53;6241976;22;20040;-80
2022/06/15 01:54:15;;;;;;;4.38;3.20;;;;;;;18.09;48.33;96778.44;6242182;22;20035;-80
2022/06/15 01:56:47;;;;;;;4.68;3.40;;;;;;;18.08;48.47;96772.34;6241733;22;20024;-80
2022/06/15 01:59:18;;;;;;;4.83;3.67;;;;;;;18.06;48.50;96776.22;6242313;22;20025;-80
2022/06/15 02:01:53;;;;;;;5.22;3.10;;;;;;;18.02;48.87;96770.59;6240967;23;20012;-81
2022/06/15 02:04:29;;;;;;;4.18;3.60;;;;;;;18.01;48.92;96763.69;6241916;23;20032;-79
2022/06/15 02:07:08;;;;;;;7.75;4.13;;;;;;;18.00;48.94;96761.31;6243420;22;20008;-80
2022/06/15 02:09:46;;;;;;;5.32;3.55;;;;;;;17.97;49.05;96757.25;6244095;23;20051;-80
2022/06/15 02:12:19;;;;;;;5.60;3.72;;;;;;;17.97;49.20;96759.88;6243478;22;20025;-78
2022/06/15 02:14:52;;;;;;;7.20;3.90;;;;;;;17.94;49.24;96760.34;6243846;22;20008;-81
2022/06/15 02:17:26;;;;;;;4.40;2.72;;;;;;;17.96;49.37;96755.66;6243468;23;20041;-80
2022/06/15 02:19:59;;;;;;;4.60;3.40;;;;;;;17.94;48.99;96754.28;6242805;23;20031;-80
2022/06/15 02:22:31;;;;;;;5.25;3.05;;;;;;;17.95;49.66;96750.59;6243314;23;20021;-79
2022/06/15 02:25:04;;;;;;;3.88;3.03;;;;;;;17.94;49.36;96749.78;6242957;22;20055;-80
2022/06/15 02:27:34;;;;;;;5.88;3.95;;;;;;;17.92;49.29;96744.72;6242670;23;20024;-80
2022/06/15 02:30:06;;;;;;;9.00;3.85;;;;;;;17.90;49.69;96746.78;6242755;23;20016;-80
2022/06/15 02:32:38;;;;;;;5.63;3.30;;;;;;;17.89;49.79;96744.41;6242859;22;20008;-80
2022/06/15 02:35:06;;;;;;;4.85;3.25;;;;;;;17.87;49.75;96738.53;6242938;23;20021;-80
2022/06/15 02:37:34;;;;;;;3.80;3.08;;;;;;;17.88;50.58;96734.84;6242807;22;20008;-80
2022/06/15 02:40:02;;;;;;;5.80;3.65;;;;;;;17.86;49.87;96729.81;6243133;23;20043;-80
2022/06/15 02:42:32;;;;;;;5.90;3.40;;;;;;;17.84;49.89;96736.31;6242853;23;20009;-80
2022/06/15 02:49:25;;;;;;;6.05;4.03;;;;;;;17.76;49.95;96734.00;6242947;23;20031;-80
2022/06/15 02:56:40;;;;;;;5.47;3.97;;;;;;;17.63;50.15;96730.50;6243073;23;20021;-80
2022/06/15 03:06:51;;;;;;;5.72;4.15;;;;;;;17.61;50.34;96740.47;6242507;23;20023;-81
2022/06/15 03:09:46;;;;;;;6.40;3.58;;;;;;;17.63;50.94;96743.69;6242620;23;20021;-79
2022/06/15 04:01:57;;;;;;;7.68;3.70;;;;;;;17.76;50.79;96763.03;6270260;23;20042;-79
2022/06/15 04:30:47;;;;;;;6.65;3.83;;;;;;;17.80;50.92;96756.25;6210377;23;19923;-81
2022/06/15 04:33:23;;;;;;;3.90;3.17;;;;;;;17.76;50.75;96752.47;6273295;22;20095;-81
2022/06/15 04:38:43;;;;;;;5.30;3.65;;;;;;;17.71;50.87;96751.28;6261115;22;20023;-81
2022/06/15 04:41:14;;;;;;;4.67;3.13;;;;;;;17.71;51.85;96753.94;6264273;23;20038;-81
2022/06/15 04:43:44;;;;;;;8.85;4.10;;;;;;;17.70;51.33;96752.31;6269097;23;20039;-81
2022/06/15 04:46:20;;;;;;;6.57;4.97;;;;;;;17.71;51.52;96747.84;6263482;22;20072;-80
2022/06/15 04:49:08;;;;;;;5.45;4.05;;;;;;;17.73;51.17;96758.16;6263928;23;20016;-81
2022/06/15 04:51:49;;;;;;;6.32;3.97;;;;;;;17.71;51.56;96759.22;6263401;23;20020;-81
2022/06/15 04:54:33;;;;;;;4.75;3.28;;;;;;;17.71;52.17;96755.78;6260490;22;20261;-81
2022/06/15 04:57:08;;;;;;;8.07;3.75;;;;;;;17.70;51.46;96751.50;6255927;22;20452;-81
2022/06/15 04:59:44;;;;;;;5.90;4.05;;;;;;;17.69;51.55;96753.34;6261487;23;20012;-81
2022/06/15 05:02:19;;;;;;;7.47;3.90;;;;;;;17.70;51.62;96760.22;6263767;22;20091;-81
2022/06/15 05:04:56;;;;;;;7.25;3.42;;;;;;;17.69;51.73;96757.84;6259703;23;20068;-81
2022/06/15 05:07:28;;;;;;;4.80;3.22;;;;;;;17.73;52.21;96752.88;6252242;22;20016;-81
2022/06/15 05:09:57;;;;;;;6.38;4.20;;;;;;;17.74;51.70;96757.97;6259862;22;20344;-81
2022/06/15 05:12:27;;;;;;;4.70;3.58;;;;;;;17.76;51.92;96757.75;6252935;23;20020;-81
2022/06/15 05:14:56;;;;;;;6.13;3.92;;;;;;;17.78;51.92;96753.84;6252935;23;20046;-81
2022/06/15 05:17:34;;;;;;;7.50;3.95;;;;;;;17.83;51.88;96748.72;6257512;22;20095;-81
2022/06/15 05:20:03;;;;;;;5.07;3.70;;;;;;;17.88;51.78;96753.31;6252803;23;20027;-81
2022/06/15 05:22:32;;;;;;;5.93;4.28;;;;;;;17.92;51.85;96746.56;6256790;23;20020;-81
2022/06/15 05:25:03;;;;;;;7.82;4.07;;;;;;;17.94;51.46;96747.16;6259238;23;20474;-81
2022/06/15 05:27:33;;;;;;;5.22;3.40;;;;;;;17.98;51.75;96752.81;6258940;22;20031;-81
2022/06/15 05:30:02;;;;;;;3.97;2.95;;;;;;;18.02;52.24;96749.47;6258077;22;20062;-81
2022/06/15 05:32:44;;;;;;;6.55;4.00;;;;;;;18.07;51.51;96756.72;6262295;23;20024;-81
2022/06/15 05:35:13;;;;;;;5.03;3.33;;;;;;;18.10;51.50;96758.91;6259151;23;20070;-79
2022/06/15 05:37:41;;;;;;;6.10;3.80;;;;;;;18.17;52.32;96753.53;6245086;22;20023;-78
2022/06/15 05:40:10;;;;;;;5.22;3.08;;;;;;;18.22;52.07;96759.75;6251883;23;20051;-81
2022/06/15 05:42:43;;;;;;;4.85;3.33;;;;;;;18.26;51.65;96758.25;6257276;23;20046;-81
2022/06/15 05:45:35;;;;;;;6.47;3.47;;;;;;;18.31;51.90;96768.16;6262958;22;20047;-80
2022/06/15 05:48:05;;;;;;;8.05;3.78;;;;;;;18.35;51.99;96764.03;6262160;23;20027;-81
2022/06/15 05:50:34;;;;;;;5.18;3.25;;;;;;;18.41;51.98;96765.75;6251414;23;20081;-81
2022/06/15 05:53:02;;;;;;;4.35;3.20;;;;;;;18.45;51.26;96769.53;6263579;23;20020;-81
2022/06/15 05:55:31;;;;;;;6.75;3.25;;;;;;;18.48;51.25;96763.81;6258164;22;20020;-81
2022/06/15 05:57:59;;;;;;;8.25;3.53;;;;;;;18.52;50.76;96770.25;6250262;23;20023;-81
2022/06/15 06:00:28;;;;;;;3.63;3.30;;;;;;;18.56;50.67;96760.00;6250547;23;20111;-81
2022/06/15 06:03:06;;;;;;;4.15;3.03;;;;;;;18.61;50.76;96759.34;6262872;23;20016;-81
2022/06/15 06:06:07;;;;;;;6.15;3.38;;;;;;;18.67;50.71;96766.34;6267207;22;20028;-81
2022/06/15 06:08:39;;;;;;;6.68;3.45;;;;;;;18.71;50.65;96764.84;6269438;23;20034;-81
2022/06/15 06:11:24;;;;;;;5.38;3.47;;;;;;;18.79;50.33;96764.56;6269321;22;20027;-81
2022/06/15 06:20:39;;;;;;;4.30;3.67;;;;;;;19.01;49.75;96758.69;6224836;23;20028;-81
2022/06/15 06:23:15;;;;;;;6.63;2.95;;;;;;;19.09;49.82;96768.91;6263580;22;20032;-81
2022/06/15 06:25:47;;;;;;;6.07;3.35;;;;;;;19.18;49.63;96766.72;6257168;22;20105;-81
2022/06/15 06:28:25;;;;;;;6.47;3.08;;;;;;;19.25;49.11;96762.91;6250954;23;20020;-81
2022/06/15 06:30:53;;;;;;;3.30;3.00;;;;;;;19.33;48.78;96764.41;6248919;23;20062;-81
2022/06/15 06:33:22;;;;;;;5.88;2.97;;;;;;;19.42;49.05;96767.50;6256948;22;20015;-81
2022/06/15 06:35:50;;;;;;;8.02;3.08;;;;;;;19.48;48.93;96756.78;6252456;22;20487;-81
2022/06/15 06:38:20;;;;;;;6.88;3.83;;;;;;;19.56;48.77;96755.59;6251694;22;20026;-81
2022/06/15 06:40:48;;;;;;;5.78;2.95;;;;;;;19.64;48.58;96760.50;6256627;23;20020;-80
2022/06/15 06:43:16;;;;;;;5.50;3.25;;;;;;;19.72;48.43;96762.81;6261834;23;20031;-81
2022/06/15 06:45:47;;;;;;;6.93;3.00;;;;;;;19.80;48.34;96760.84;6260069;22;20028;-81
2022/06/15 06:48:29;;;;;;;5.38;2.95;;;;;;;19.89;48.44;96765.50;6263229;23;20020;-81
2022/06/15 06:50:59;;;;;;;5.38;2.90;;;;;;;19.98;48.02;96770.41;6262644;23;20023;-81
2022/06/15 06:53:31;;;;;;;3.58;2.88;;;;;;;20.05;47.82;96761.31;6264727;23;20099;-81
2022/06/15 06:56:01;;;;;;;5.43;3.38;;;;;;;20.15;47.75;96756.16;6263918;22;20046;-81
2022/06/15 06:58:33;;;;;;;;;;;;;;;20.23;47.59;96762.13;6265262;22;20034;-81
2022/06/15 07:01:10;;;;;;;5.38;2.75;;;;;;;20.30;47.42;96760.13;6264614;22;19942;-81
2022/06/15 07:03:40;;;;;;;4.93;2.97;;;;;;;20.36;47.43;96762.63;6269561;23;20027;-81
2022/06/15 07:06:11;;;;;;;4.75;3.10;;;;;;;20.45;47.25;96765.66;6261838;22;20024;-81
2022/06/15 07:09:30;;;;;;;5.35;2.65;;;;;;;20.53;47.19;96762.63;6267101;23;20030;-82
2022/06/15 07:12:14;;;;;;;6.35;3.15;;;;;;;20.64;46.58;96753.03;6265736;23;20043;-79
2022/06/15 07:14:42;;;;;;;3.83;2.88;;;;;;;20.73;46.57;96758.72;6259348;23;20444;-81
2022/06/15 07:17:11;;;;;;;2.97;2.67;;;;;;;20.80;45.94;96753.25;6256195;22;20020;-81
2022/06/15 07:19:44;;;;;;;5.50;3.78;;;;;;;20.89;45.21;96757.09;6260054;23;20020;-81
2022/06/15 07:22:12;;;;;;;3.28;2.85;;;;;;;20.96;45.54;96755.84;6264720;23;20399;-81
2022/06/15 07:24:41;;;;;;;4.50;2.42;;;;;;;21.06;44.61;96754.41;6263029;22;20024;-81
2022/06/15 07:27:17;;;;;;;5.20;2.63;;;;;;;21.16;44.40;96744.72;6264505;22;20020;-81
2022/06/15 07:29:50;;;;;;;5.70;2.72;;;;;;;21.27;44.09;96756.25;6268393;23;20027;-81
2022/06/15 07:32:21;;;;;;;3.45;2.28;;;;;;;21.35;43.99;96747.88;6270699;23;20080;-81
2022/06/15 07:34:55;;;;;;;4.55;2.15;;;;;;;21.46;43.84;96756.00;6271938;22;20020;-81
2022/06/15 07:37:26;;;;;;;4.47;2.65;;;;;;;21.54;43.28;96758.22;6269272;22;20020;-81
2022/06/15 07:40:16;;;;;;;2.90;2.17;;;;;;;21.62;43.16;96757.75;6263346;22;20072;-81
2022/06/15 07:42:45;;;;;;;2.72;2.25;;;;;;;21.74;42.46;96761.09;6261989;23;20062;-81
2022/06/15 07:45:15;;;;;;;3.45;1.88;;;;;;;21.84;42.12;96748.97;6262495;23;20020;-81
2022/06/15 07:50:29;;;;;;;3.90;2.50;;;;;;;22.05;42.17;96748.13;6257921;23;20026;-81
2022/06/15 07:53:03;;;;;;;4.25;2.38;;;;;;;22.15;41.20;96756.22;6262219;23;20415;-81
2022/06/15 07:55:36;;;;;;;4.30;2.63;;;;;;;22.26;41.30;96758.97;6268064;22;20017;-81
2022/06/15 07:58:08;;;;;;;2.28;2.00;;;;;;;22.36;41.09;96751.09;6263692;23;20253;-81
2022/06/15 08:00:39;;;;;;;4.25;2.45;;;;;;;22.48;40.61;96751.72;6263486;22;20027;-81
2022/06/15 08:03:09;;;;;;;4.18;2.33;;;;;;;22.59;39.47;96756.06;6272550;22;20016;-81
2022/06/15 08:05:42;;;;;;;2.17;1.98;;;;;;;22.70;37.14;96761.47;6273010;22;20019;-80
2022/06/15 08:08:21;;;;;;;2.45;1.92;;;;;;;22.77;36.13;96756.72;6272338;23;20020;-81
2022/06/15 08:10:55;;;;;;;2.95;1.60;;;;;;;22.85;36.09;96758.91;6273596;22;20016;-81
2022/06/15 08:13:38;;;;;;;2.28;1.70;;;;;;;22.95;36.61;96752.84;6269817;23;20050;-82
2022/06/15 08:16:07;;;;;;;2.92;2.00;;;;;;;23.04;36.33;96746.78;6267121;22;20074;-81
2022/06/15 08:18:42;;;;;;;3.28;2.10;;;;;;;23.13;36.39;96756.94;6271743;23;20024;-81
2022/06/15 08:21:17;;;;;;;4.15;2.13;;;;;;;23.23;36.89;96760.47;6269642;23;20072;-81
2022/06/15 08:23:48;;;;;;;3.58;1.98;;;;;;;23.32;37.41;96758.13;6268164;23;20027;-81
2022/06/15 08:26:19;;;;;;;2.20;1.73;;;;;;;23.40;37.30;96754.97;6267381;22;20077;-81
2022/06/15 08:29:07;;;;;;;2.28;2.00;;;;;;;23.52;37.62;96751.28;6270089;22;20020;-81
2022/06/15 08:31:38;;;;;;;2.90;1.80;;;;;;;23.60;36.36;96754.25;6271089;22;20076;-81
2022/06/15 08:34:12;;;;;;;2.05;1.60;;;;;;;23.67;36.13;96754.00;6270015;22;20003;-81
2022/06/15 08:36:42;;;;;;;4.20;1.55;;;;;;;23.75;36.41;96756.19;6272883;22;20024;-80
2022/06/15 08:39:13;;;;;;;4.78;2.08;;;;;;;23.83;36.44;96747.69;6271239;23;20008;-81
2022/06/15 08:41:56;;;;;;;3.20;2.00;;;;;;;23.94;36.89;96750.34;6267390;22;20016;-80
2022/06/15 08:44:34;;;;;;;1.92;1.65;;;;;;;24.04;36.20;96748.50;6267984;23;20017;-81
2022/06/15 08:47:11;;;;;;;3.13;1.58;;;;;;;24.14;36.72;96757.56;6272534;22;20020;-82
2022/06/15 08:49:49;;;;;;;2.83;1.85;;;;;;;24.21;35.49;96747.47;6274740;22;20008;-81
2022/06/15 08:52:20;;;;;;;4.28;2.00;;;;;;;24.27;36.07;96749.88;6273952;22;20295;-81
2022/06/15 08:54:56;;;;;;;5.55;1.83;;;;;;;24.36;35.45;96754.66;6263211;23;20013;-81
2022/06/15 08:57:37;;;;;;;4.38;1.50;;;;;;;24.44;35.37;96754.94;6270734;22;20004;-81
2022/06/15 09:00:14;;;;;;;1.80;1.48;;;;;;;24.53;35.48;96749.09;6268950;23;20031;-81
2022/06/15 09:03:03;;;;;;;2.85;1.73;;;;;;;24.62;36.37;96753.63;6272568;22;20436;-82
2022/06/15 09:05:40;;;;;;;3.15;2.15;;;;;;;24.73;36.31;96764.28;6271738;22;20459;-82
2022/06/15 09:08:46;;;;;;;4.75;2.03;;;;;;;24.83;36.19;96758.94;6270211;22;20050;-81
2022/06/15 09:11:22;;;;;;;4.43;1.90;;;;;;;24.91;36.34;96761.06;6268069;23;20016;-81
2022/06/15 09:14:21;;;;;;;2.88;1.95;;;;;;;24.98;36.41;96761.59;6267919;23;20035;-81
2022/06/15 09:17:00;;;;;;;2.80;1.73;;;;;;;25.07;36.26;96761.84;6271769;22;20046;-81
2022/06/15 09:19:35;;;;;;;3.13;2.03;;;;;;;25.15;36.45;96755.16;6269540;23;20024;-81
2022/06/15 09:22:09;;;;;;;2.92;2.20;;;;;;;25.22;36.51;96753.03;6270785;23;20040;-81
2022/06/15 09:24:48;;;;;;;4.50;1.88;;;;;;;25.31;36.22;96753.25;6269642;23;20382;-81
2022/06/15 09:27:21;;;;;;;3.80;1.80;;;;;;;25.41;36.69;96754.03;6267259;22;20024;-81
2022/06/15 09:29:55;;;;;;;;;;;;;;;25.49;37.25;96753.47;6266853;23;20024;-81
2022/06/15 09:32:37;;;;;;;2.03;1.73;;;;;;;25.60;37.23;96756.06;6272759;22;19900;-81
2022/06/15 09:35:30;;;;;;;2.80;1.75;;;;;;;25.68;37.29;96748.28;6270423;23;20023;-81
2022/06/15 09:58:26;;;;;;;2.17;1.73;;;;;;;26.31;35.74;96744.19;6246788;22;20448;-77
2022/06/15 10:00:54;;;;;;;3.55;1.80;;;;;;;26.38;35.67;96743.88;6270133;23;20009;-78
2022/06/15 10:03:25;;;;;;;3.20;1.67;;;;;;;26.44;36.61;96743.53;6271055;22;20020;-77
2022/06/15 10:05:56;;;;;;;3.88;1.65;;;;;;;26.52;35.06;96744.81;6263500;23;20024;-79
2022/06/15 10:08:24;;;;;;;4.68;2.22;;;;;;;26.58;35.03;96737.56;6265521;22;20028;-78
2022/06/15 10:10:54;;;;;;;3.30;2.00;;;;;;;26.63;33.98;96742.88;6266229;23;20040;-79
2022/06/15 10:13:32;;;;;;;3.65;2.20;;;;;;;26.68;34.57;96745.50;6250387;23;20040;-78
2022/06/15 10:16:01;;;;;;;3.13;2.03;;;;;;;26.73;34.34;96739.31;6248702;23;20074;-77
2022/06/15 10:18:36;;;;;;;4.90;2.75;;;;;;;26.76;34.51;96742.19;6249163;22;20024;-77
2022/06/15 10:21:10;;;;;;;4.03;1.50;;;;;;;26.80;33.09;96737.09;6246253;23;20100;-78
2022/06/15 10:23:49;;;;;;;3.20;1.92;;;;;;;26.86;34.43;96744.00;6245558;23;20404;-78
2022/06/15 10:26:27;;;;;;;4.60;1.77;;;;;;;26.91;34.79;96741.25;6246392;23;20460;-77
2022/06/15 10:28:57;;;;;;;15.43;2.40;;;;;;;26.96;36.97;96735.06;6246960;22;20055;-74
2022/06/15 10:31:30;;;;;;;3.88;2.20;;;;;;;26.96;35.48;96743.09;6246190;23;20028;-74
2022/06/15 10:33:58;;;;;;;9.23;2.22;;;;;;;26.96;35.37;96732.38;6246484;23;20333;-74
2022/06/15 10:36:30;;;;;;;3.53;2.40;;;;;;;26.97;34.83;96734.00;6247703;23;20403;-74
2022/06/15 10:39:04;;;;;;;5.63;2.47;;;;;;;26.97;35.08;96729.44;6247220;22;20240;-75
2022/06/15 10:41:58;;;;;;;2.83;1.60;;;;;;;26.98;33.27;96733.69;6246901;23;20020;-77
2022/06/15 10:44:30;;;;;;;3.70;1.88;;;;;;;27.00;33.46;96731.53;6247264;23;20476;-77
2022/06/15 10:47:02;;;;;;;5.40;2.08;;;;;;;27.05;33.75;96731.50;6246436;23;20034;-75
2022/06/15 10:49:33;;;;;;;3.72;1.75;;;;;;;27.12;31.74;96723.13;6246769;22;20024;-75
2022/06/15 10:52:02;;;;;;;3.72;2.10;;;;;;;27.16;33.40;96726.81;6246653;23;20024;-76
2022/06/15 11:02:06;;;;;;;5.05;2.08;;;;;;;27.22;33.02;96730.25;6247030;23;20112;-76
2022/06/15 11:03:17;;;;;;;5.88;2.60;;;;;;;27.41;31.47;96725.72;6248329;23;20099;-75
2022/06/15 11:05:47;;;;;;;2.45;1.83;;;;;;;27.46;32.22;96720.34;6246714;23;20364;-74
2022/06/15 11:08:18;;;;;;;1.77;1.55;;;;;;;27.49;30.58;96725.09;6247482;22;20024;-76
2022/06/15 11:10:49;;;;;;;4.00;2.00;;;;;;;27.51;31.56;96716.78;6248380;23;20054;-75
2022/06/15 11:13:31;;;;;;;2.55;1.70;;;;;;;27.51;33.49;96714.91;6246453;23;20039;-75
2022/06/15 11:19:05;;;;;;;2.20;1.90;;;;;;;27.57;31.81;96715.63;6246181;22;19923;-75
2022/06/15 11:21:38;;;;;;;5.50;1.90;;;;;;;27.60;31.11;96714.25;6245662;23;20099;-75
2022/06/15 11:24:12;;;;;;;2.50;1.75;;;;;;;27.64;32.19;96709.91;6246345;23;20059;-77
2022/06/15 11:26:55;;;;;;;2.95;1.70;;;;;;;27.69;31.72;96707.16;6246008;23;20396;-77
2022/06/15 11:29:45;;;;;;;2.13;1.83;;;;;;;27.69;30.75;96697.22;6246274;22;20415;-76
2022/06/15 11:32:43;;;;;;;3.05;2.13;;;;;;;27.66;31.32;96707.72;6246342;23;20047;-76
2022/06/15 11:35:25;;;;;;;3.35;2.38;;;;;;;27.61;31.69;96702.44;6230949;23;20020;-75
2022/06/15 11:37:58;;;;;;;2.75;2.00;;;;;;;27.60;32.22;96706.22;6245826;22;20039;-75
2022/06/15 11:40:36;;;;;;;4.43;1.80;;;;;;;27.60;32.14;96698.97;6245638;23;20031;-75
2022/06/15 11:43:14;;;;;;;2.58;1.92;;;;;;;27.66;32.73;96705.03;6245835;23;20021;-75
2022/06/15 11:45:53;;;;;;;3.38;2.10;;;;;;;27.73;32.61;96702.81;6251079;23;20043;-76
2022/06/15 11:48:35;;;;;;;2.63;2.05;;;;;;;27.79;31.56;96707.03;6265655;22;20054;-76
2022/06/15 11:51:13;;;;;;;2.65;2.00;;;;;;;27.84;32.18;96696.22;6258984;23;20031;-79
2022/06/15 11:53:54;;;;;;;3.95;2.15;;;;;;;27.91;31.80;96707.41;6250672;23;20048;-75
2022/06/15 11:56:25;;;;;;;7.18;1.95;;;;;;;27.99;31.63;96699.78;6247146;23;20094;-76
2022/06/15 11:59:02;;;;;;;1.90;1.60;;;;;;;28.04;31.54;96695.16;6245156;22;20103;-76
2022/06/15 12:01:54;;;;;;;5.03;2.58;;;;;;;28.08;32.46;96703.41;6246696;23;20031;-76
2022/06/15 12:04:41;;;;;;;2.53;1.73;;;;;;;28.11;31.45;96702.81;6247179;23;20028;-75
2022/06/15 12:07:19;;;;;;;4.45;2.20;;;;;;;28.11;30.40;96695.56;6247154;23;20120;-75
2022/06/15 12:10:03;;;;;;;3.70;2.05;;;;;;;28.10;30.09;96695.88;6245684;22;20024;-76
2022/06/15 12:12:41;;;;;;;3.38;2.10;;;;;;;28.10;32.02;96687.84;6247268;23;20122;-76
2022/06/15 12:15:32;;;;;;;2.50;1.70;;;;;;;28.15;32.53;96693.09;6246567;23;20028;-76
2022/06/15 12:18:12;;;;;;;6.70;2.03;;;;;;;28.16;30.92;96694.69;6246367;22;20099;-78
2022/06/15 12:20:51;;;;;;;1.98;1.77;;;;;;;28.15;31.31;96701.16;6246944;23;20028;-77
2022/06/15 12:23:31;;;;;;;2.15;1.70;;;;;;;28.16;30.47;96697.38;6247003;23;20099;-78
2022/06/15 12:26:10;;;;;;;3.67;1.67;;;;;;;28.17;30.80;96696.28;6247235;23;20032;-79
2022/06/15 12:28:42;;;;;;;4.13;2.08;;;;;;;28.22;31.59;96690.84;6247447;22;20024;-77
2022/06/15 12:31:16;;;;;;;3.78;1.95;;;;;;;28.26;31.69;96686.47;6247143;23;20047;-77
2022/06/15 12:33:53;;;;;;;3.17;2.05;;;;;;;28.33;31.16;96688.78;6248963;23;20023;-78
2022/06/15 12:36:29;;;;;;;3.17;1.65;;;;;;;28.37;31.54;96689.00;6247822;23;20377;-76
2022/06/15 12:39:05;;;;;;;1.80;1.38;;;;;;;28.41;32.42;96692.69;6248239;22;20024;-76
2022/06/15 12:44:25;;;;;;;2.70;1.60;;;;;;;28.48;31.35;96690.44;6247970;23;20028;-76
2022/06/15 12:46:55;;;;;;;3.63;1.50;;;;;;;28.49;32.04;96689.34;6247694;23;20026;-78
2022/06/15 12:49:49;;;;;;;2.72;1.63;;;;;;;28.52;30.53;96691.44;6245964;22;20507;-76
2022/06/15 12:52:33;;;;;;;1.52;1.40;;;;;;;28.53;30.75;96690.34;6244651;23;20059;-76
2022/06/15 12:55:18;;;;;;;3.45;1.65;;;;;;;28.54;31.86;96690.06;6244615;23;20013;-76
2022/06/15 12:57:55;;;;;;;2.38;1.55;;;;;;;28.57;30.66;96691.34;6245909;22;20095;-76
2022/06/15 13:00:30;;;;;;;3.40;1.90;;;;;;;28.60;31.40;96693.47;6245066;23;20102;-76
2022/06/15 13:03:10;;;;;;;5.97;2.08;;;;;;;28.64;31.37;96694.44;6244705;23;20022;-77
2022/06/15 13:05:38;;;;;;;4.85;1.67;;;;;;;28.66;30.63;96691.47;6245109;23;20024;-76
2022/06/15 13:08:34;;;;;;;2.60;1.60;;;;;;;28.66;30.58;96692.25;6245332;22;20409;-77
2022/06/15 13:11:14;;;;;;;3.60;1.80;;;;;;;28.67;31.30;96688.50;6244805;23;20028;-76
2022/06/15 13:13:46;;;;;;;2.15;1.63;;;;;;;28.67;30.80;96693.88;6244636;23;20103;-76
2022/06/15 13:16:29;;;;;;;2.83;1.88;;;;;;;28.66;30.87;96691.47;6245085;23;20103;-77
2022/06/15 13:18:58;;;;;;;4.95;2.28;;;;;;;28.63;31.66;96698.22;6245240;22;20028;-76
2022/06/15 13:21:28;;;;;;;3.13;2.20;;;;;;;28.64;31.72;96699.81;6244903;23;20024;-77
2022/06/15 13:24:04;;;;;;;2.20;1.52;;;;;;;28.65;31.80;96690.69;6244762;22;20016;-78
2022/06/15 13:26:52;;;;;;;2.63;1.63;;;;;;;28.63;30.66;96692.84;6245435;23;20071;-76
2022/06/15 13:29:27;;;;;;;2.90;1.70;;;;;;;28.64;30.67;96693.66;6244444;22;20039;-77
2022/06/15 13:31:58;;;;;;;2.10;1.58;;;;;;;28.63;31.31;96690.19;6245035;23;20028;-78
2022/06/15 13:34:47;;;;;;;2.20;1.77;;;;;;;28.65;31.67;96696.06;6245421;22;20099;-77
2022/06/15 13:37:27;;;;;;;2.60;1.70;;;;;;;28.67;31.39;96688.50;6247548;23;20066;-76
2022/06/15 13:39:58;;;;;;;2.58;1.80;;;;;;;28.69;32.32;96690.91;6252856;22;20460;-76
2022/06/15 13:42:34;;;;;;;3.80;1.70;;;;;;;28.69;30.58;96691.69;6250806;23;20099;-77
2022/06/15 13:45:07;;;;;;;6.60;1.73;;;;;;;28.72;31.39;96684.91;6244730;23;20384;-77
2022/06/15 13:47:48;;;;;;;1.48;1.38;;;;;;;28.76;31.38;96680.56;6244778;23;20031;-77
2022/06/15 13:50:20;;;;;;;2.85;1.52;;;;;;;28.80;31.90;96680.75;6244465;23;20464;-76
2022/06/15 13:52:49;;;;;;;2.10;1.70;;;;;;;28.83;30.74;96680.16;6246086;23;20090;-77
2022/06/15 13:55:42;;;;;;;2.63;1.70;;;;;;;28.85;31.06;96683.34;6244792;23;20099;-76
2022/06/15 13:58:50;;;;;;;4.93;1.85;;;;;;;28.88;32.04;96678.16;6244697;22;20403;-76
2022/06/15 14:01:42;;;;;;;1.77;1.30;;;;;;;28.90;30.97;96675.97;6245649;23;20059;-78
2022/06/15 14:04:20;;;;;;;2.25;1.02;;;;;;;28.91;28.79;96666.06;6243550;22;20468;-76
2022/06/15 14:07:04;;;;;;;1.40;1.27;;;;;;;28.93;29.12;96669.22;6246201;23;20042;-76
2022/06/15 14:09:50;;;;;;;2.92;1.25;;;;;;;28.96;27.01;96665.94;6246703;22;20407;-76
2022/06/15 14:12:44;;;;;;;2.17;1.38;;;;;;;28.98;27.96;96674.50;6246686;23;20051;-78
2022/06/15 14:15:37;;;;;;;1.92;1.00;;;;;;;28.98;27.44;96676.41;6246965;23;20021;-77
2022/06/15 14:18:30;;;;;;;3.25;1.10;;;;;;;28.97;26.66;96675.56;6247165;22;20020;-78
2022/06/15 14:21:12;;;;;;;1.10;1.00;;;;;;;28.96;27.79;96668.63;6245990;23;20623;-77
2022/06/15 14:23:40;;;;;;;2.03;0.90;;;;;;;28.97;26.42;96659.47;6246403;23;20016;-76
2022/06/15 14:26:11;;;;;;;1.77;1.60;;;;;;;28.98;26.81;96655.69;6246348;23;20039;-76
2022/06/15 14:28:40;;;;;;;2.45;0.93;;;;;;;28.99;26.78;96661.84;6245871;22;20029;-77
2022/06/15 14:31:15;;;;;;;6.10;5.35;;;;;;;28.97;27.56;96664.84;6245902;23;20020;-77